sensor_id;sensor_type;location;lat;lon;timestamp;P1;durP1;ratioP1;P2;durP2;ratioP2
71648;SDS011;59492;45.638;11.714;2022-07-06T00:01:42;3.60;;;1.90;;
71648;SDS011;59492;45.638;11.714;2022-07-06T00:04:08;6.00;;;2.70;;
71648;SDS011;59492;45.638;11.714;2022-07-06T00:06:33;3.90;;;1.80;;
71648;SDS011;59492;45.638;11.714;2022-07-06T00:08:59;2.80;;;1.90;;
71648;SDS011;59492;45.638;11.714;2022-07-06T00:11:25;2.80;;;2.10;;
71648;SDS011;59492;45.638;11.714;2022-07-06T00:13:52;5.10;;;2.10;;
71648;SDS011;59492;45.638;11.714;2022-07-06T00:16:18;3.10;;;2.00;;
71648;SDS011;59492;45.638;11.714;2022-07-06T00:18:45;4.80;;;2.00;;
71648;SDS011;59492;45.638;11.714;2022-07-06T00:21:10;3.60;;;2.10;;
71648;SDS011;59492;45.638;11.714;2022-07-06T00:23:36;4.20;;;1.60;;
71648;SDS011;59492;45.638;11.714;2022-07-06T00:26:03;5.20;;;1.60;;
71648;SDS011;59492;45.638;11.714;2022-07-06T00:28:29;2.80;;;2.00;;
71648;SDS011;59492;45.638;11.714;2022-07-06T00:30:54;3.80;;;1.80;;
71648;SDS011;59492;45.638;11.714;2022-07-06T00:33:20;4.40;;;1.70;;
71648;SDS011;59492;45.638;11.714;2022-07-06T00:35:47;5.80;;;2.10;;
71648;SDS011;59492;45.638;11.714;2022-07-06T00:38:13;3.20;;;1.90;;
71648;SDS011;59492;45.638;11.714;2022-07-06T00:40:39;3.30;;;1.90;;
71648;SDS011;59492;45.638;11.714;2022-07-06T00:43:05;4.10;;;2.00;;
71648;SDS011;59492;45.638;11.714;2022-07-06T00:45:31;3.10;;;1.80;;
71648;SDS011;59492;45.638;11.714;2022-07-06T00:47:57;4.00;;;2.00;;
71648;SDS011;59492;45.638;11.714;2022-07-06T00:50:23;2.50;;;1.50;;
71648;SDS011;59492;45.638;11.714;2022-07-06T00:55:27;2.60;;;1.60;;
71648;SDS011;59492;45.638;11.714;2022-07-06T00:57:55;3.80;;;1.90;;
71648;SDS011;59492;45.638;11.714;2022-07-06T01:00:23;4.10;;;1.90;;
71648;SDS011;59492;45.638;11.714;2022-07-06T01:02:51;2.60;;;1.70;;
71648;SDS011;59492;45.638;11.714;2022-07-06T01:05:18;2.40;;;1.80;;
71648;SDS011;59492;45.638;11.714;2022-07-06T01:07:46;2.70;;;1.80;;
71648;SDS011;59492;45.638;11.714;2022-07-06T01:10:14;5.50;;;1.80;;
71648;SDS011;59492;45.638;11.714;2022-07-06T01:12:42;3.20;;;1.80;;
71648;SDS011;59492;45.638;11.714;2022-07-06T01:15:10;2.60;;;1.80;;
71648;SDS011;59492;45.638;11.714;2022-07-06T01:17:42;2.50;;;1.60;;
71648;SDS011;59492;45.638;11.714;2022-07-06T01:20:14;2.90;;;1.70;;
71648;SDS011;59492;45.638;11.714;2022-07-06T01:22:43;2.30;;;1.80;;
71648;SDS011;59492;45.638;11.714;2022-07-06T01:25:10;2.40;;;1.60;;
71648;SDS011;59492;45.638;11.714;2022-07-06T01:27:37;2.90;;;1.90;;
71648;SDS011;59492;45.638;11.714;2022-07-06T01:30:05;2.30;;;1.40;;
71648;SDS011;59492;45.638;11.714;2022-07-06T01:32:32;3.20;;;1.80;;
71648;SDS011;59492;45.638;11.714;2022-07-06T01:34:58;2.20;;;1.60;;
71648;SDS011;59492;45.638;11.714;2022-07-06T01:37:25;2.70;;;1.70;;
71648;SDS011;59492;45.638;11.714;2022-07-06T01:39:51;2.60;;;1.70;;
71648;SDS011;59492;45.638;11.714;2022-07-06T01:42:16;3.10;;;1.70;;
71648;SDS011;59492;45.638;11.714;2022-07-06T01:44:43;1.90;;;1.50;;
71648;SDS011;59492;45.638;11.714;2022-07-06T01:47:10;3.00;;;1.80;;
71648;SDS011;59492;45.638;11.714;2022-07-06T01:49:36;3.60;;;1.80;;
71648;SDS011;59492;45.638;11.714;2022-07-06T01:52:02;3.20;;;1.60;;
71648;SDS011;59492;45.638;11.714;2022-07-06T01:54:28;2.10;;;1.80;;
71648;SDS011;59492;45.638;11.714;2022-07-06T01:56:54;3.00;;;1.60;;
71648;SDS011;59492;45.638;11.714;2022-07-06T01:59:20;3.60;;;1.70;;
71648;SDS011;59492;45.638;11.714;2022-07-06T02:01:46;1.70;;;1.60;;
71648;SDS011;59492;45.638;11.714;2022-07-06T02:04:11;2.70;;;1.80;;
71648;SDS011;59492;45.638;11.714;2022-07-06T02:06:37;1.70;;;1.60;;
71648;SDS011;59492;45.638;11.714;2022-07-06T02:09:03;3.60;;;1.90;;
71648;SDS011;59492;45.638;11.714;2022-07-06T02:11:28;2.50;;;1.60;;
71648;SDS011;59492;45.638;11.714;2022-07-06T02:13:54;2.80;;;1.70;;
71648;SDS011;59492;45.638;11.714;2022-07-06T02:16:20;3.00;;;1.60;;
71648;SDS011;59492;45.638;11.714;2022-07-06T02:18:45;4.30;;;1.70;;
71648;SDS011;59492;45.638;11.714;2022-07-06T02:21:11;2.90;;;1.80;;
71648;SDS011;59492;45.638;11.714;2022-07-06T02:23:37;2.60;;;1.70;;
71648;SDS011;59492;45.638;11.714;2022-07-06T02:26:02;2.40;;;1.50;;
71648;SDS011;59492;45.638;11.714;2022-07-06T02:28:29;3.70;;;2.10;;
71648;SDS011;59492;45.638;11.714;2022-07-06T02:30:54;3.00;;;1.80;;
71648;SDS011;59492;45.638;11.714;2022-07-06T02:33:20;2.00;;;1.60;;
71648;SDS011;59492;45.638;11.714;2022-07-06T02:35:45;3.60;;;1.70;;
71648;SDS011;59492;45.638;11.714;2022-07-06T02:38:11;4.20;;;1.90;;
71648;SDS011;59492;45.638;11.714;2022-07-06T02:40:36;2.00;;;1.40;;
71648;SDS011;59492;45.638;11.714;2022-07-06T02:43:03;2.60;;;1.60;;
71648;SDS011;59492;45.638;11.714;2022-07-06T02:45:29;4.70;;;1.50;;
71648;SDS011;59492;45.638;11.714;2022-07-06T02:47:55;3.00;;;1.70;;
71648;SDS011;59492;45.638;11.714;2022-07-06T02:50:22;1.90;;;1.50;;
71648;SDS011;59492;45.638;11.714;2022-07-06T02:52:49;2.80;;;2.10;;
71648;SDS011;59492;45.638;11.714;2022-07-06T02:55:14;1.60;;;1.40;;
71648;SDS011;59492;45.638;11.714;2022-07-06T02:57:40;2.30;;;1.70;;
71648;SDS011;59492;45.638;11.714;2022-07-06T03:00:07;2.20;;;1.50;;
71648;SDS011;59492;45.638;11.714;2022-07-06T03:02:34;2.80;;;1.70;;
71648;SDS011;59492;45.638;11.714;2022-07-06T03:05:00;2.00;;;1.50;;
71648;SDS011;59492;45.638;11.714;2022-07-06T03:07:26;4.30;;;1.60;;
71648;SDS011;59492;45.638;11.714;2022-07-06T03:09:52;3.50;;;1.80;;
71648;SDS011;59492;45.638;11.714;2022-07-06T03:12:17;2.80;;;1.80;;
71648;SDS011;59492;45.638;11.714;2022-07-06T03:14:43;3.60;;;1.90;;
71648;SDS011;59492;45.638;11.714;2022-07-06T03:17:09;2.10;;;1.70;;
71648;SDS011;59492;45.638;11.714;2022-07-06T03:19:34;5.00;;;1.70;;
71648;SDS011;59492;45.638;11.714;2022-07-06T03:22:00;3.10;;;1.60;;
71648;SDS011;59492;45.638;11.714;2022-07-06T03:24:26;3.30;;;1.60;;
71648;SDS011;59492;45.638;11.714;2022-07-06T03:26:55;2.30;;;1.60;;
71648;SDS011;59492;45.638;11.714;2022-07-06T03:29:28;2.00;;;1.70;;
71648;SDS011;59492;45.638;11.714;2022-07-06T03:31:55;2.40;;;1.70;;
71648;SDS011;59492;45.638;11.714;2022-07-06T03:34:22;4.10;;;2.10;;
71648;SDS011;59492;45.638;11.714;2022-07-06T03:36:47;2.40;;;2.00;;
71648;SDS011;59492;45.638;11.714;2022-07-06T03:39:16;4.10;;;1.90;;
71648;SDS011;59492;45.638;11.714;2022-07-06T03:41:49;3.30;;;2.40;;
71648;SDS011;59492;45.638;11.714;2022-07-06T03:44:17;2.40;;;2.10;;
71648;SDS011;59492;45.638;11.714;2022-07-06T03:46:42;4.20;;;2.30;;
71648;SDS011;59492;45.638;11.714;2022-07-06T03:49:08;3.50;;;2.10;;
71648;SDS011;59492;45.638;11.714;2022-07-06T03:51:34;9.10;;;2.70;;
71648;SDS011;59492;45.638;11.714;2022-07-06T03:53:59;5.10;;;1.90;;
71648;SDS011;59492;45.638;11.714;2022-07-06T03:56:25;2.30;;;2.10;;
71648;SDS011;59492;45.638;11.714;2022-07-06T03:58:57;5.20;;;2.30;;
71648;SDS011;59492;45.638;11.714;2022-07-06T04:01:25;2.60;;;2.00;;
71648;SDS011;59492;45.638;11.714;2022-07-06T04:03:51;3.60;;;1.90;;
71648;SDS011;59492;45.638;11.714;2022-07-06T04:06:17;3.10;;;2.10;;
71648;SDS011;59492;45.638;11.714;2022-07-06T04:08:43;5.40;;;2.30;;
71648;SDS011;59492;45.638;11.714;2022-07-06T04:11:08;4.80;;;2.70;;
71648;SDS011;59492;45.638;11.714;2022-07-06T04:13:34;6.30;;;2.10;;
71648;SDS011;59492;45.638;11.714;2022-07-06T04:16:00;9.40;;;2.80;;
71648;SDS011;59492;45.638;11.714;2022-07-06T04:18:26;6.80;;;2.40;;
71648;SDS011;59492;45.638;11.714;2022-07-06T04:20:52;6.10;;;2.60;;
71648;SDS011;59492;45.638;11.714;2022-07-06T04:23:17;4.00;;;2.40;;
71648;SDS011;59492;45.638;11.714;2022-07-06T04:25:43;9.00;;;2.30;;
71648;SDS011;59492;45.638;11.714;2022-07-06T04:28:09;5.10;;;2.40;;
71648;SDS011;59492;45.638;11.714;2022-07-06T04:30:35;5.50;;;2.20;;
71648;SDS011;59492;45.638;11.714;2022-07-06T04:33:00;5.20;;;2.40;;
71648;SDS011;59492;45.638;11.714;2022-07-06T04:35:26;8.40;;;2.50;;
71648;SDS011;59492;45.638;11.714;2022-07-06T04:37:52;7.10;;;2.30;;
71648;SDS011;59492;45.638;11.714;2022-07-06T04:40:17;9.20;;;2.00;;
71648;SDS011;59492;45.638;11.714;2022-07-06T04:42:43;4.70;;;2.20;;
71648;SDS011;59492;45.638;11.714;2022-07-06T04:45:09;6.20;;;2.40;;
71648;SDS011;59492;45.638;11.714;2022-07-06T04:47:35;5.10;;;2.30;;
71648;SDS011;59492;45.638;11.714;2022-07-06T04:50:01;4.60;;;2.10;;
71648;SDS011;59492;45.638;11.714;2022-07-06T04:52:27;8.10;;;2.40;;
71648;SDS011;59492;45.638;11.714;2022-07-06T04:54:56;8.30;;;2.30;;
71648;SDS011;59492;45.638;11.714;2022-07-06T04:57:22;8.70;;;2.40;;
71648;SDS011;59492;45.638;11.714;2022-07-06T04:59:51;6.60;;;2.30;;
71648;SDS011;59492;45.638;11.714;2022-07-06T05:02:17;4.10;;;2.00;;
71648;SDS011;59492;45.638;11.714;2022-07-06T05:04:43;4.30;;;2.00;;
71648;SDS011;59492;45.638;11.714;2022-07-06T05:07:08;4.90;;;2.10;;
71648;SDS011;59492;45.638;11.714;2022-07-06T05:09:34;5.60;;;2.20;;
71648;SDS011;59492;45.638;11.714;2022-07-06T05:11:59;6.10;;;1.90;;
71648;SDS011;59492;45.638;11.714;2022-07-06T05:14:25;6.40;;;2.10;;
71648;SDS011;59492;45.638;11.714;2022-07-06T05:16:51;4.60;;;2.00;;
71648;SDS011;59492;45.638;11.714;2022-07-06T05:19:17;3.80;;;1.90;;
71648;SDS011;59492;45.638;11.714;2022-07-06T05:21:42;3.30;;;1.90;;
71648;SDS011;59492;45.638;11.714;2022-07-06T05:24:08;3.80;;;1.90;;
71648;SDS011;59492;45.638;11.714;2022-07-06T05:26:33;3.90;;;1.90;;
71648;SDS011;59492;45.638;11.714;2022-07-06T05:28:59;7.00;;;2.10;;
71648;SDS011;59492;45.638;11.714;2022-07-06T05:31:25;5.30;;;1.70;;
71648;SDS011;59492;45.638;11.714;2022-07-06T05:33:51;3.50;;;1.80;;
71648;SDS011;59492;45.638;11.714;2022-07-06T05:36:16;3.60;;;1.80;;
71648;SDS011;59492;45.638;11.714;2022-07-06T05:38:43;4.50;;;2.00;;
71648;SDS011;59492;45.638;11.714;2022-07-06T05:41:09;2.50;;;1.90;;
71648;SDS011;59492;45.638;11.714;2022-07-06T05:43:35;5.30;;;2.00;;
71648;SDS011;59492;45.638;11.714;2022-07-06T05:46:02;4.50;;;2.00;;
71648;SDS011;59492;45.638;11.714;2022-07-06T05:48:28;5.40;;;2.00;;
71648;SDS011;59492;45.638;11.714;2022-07-06T05:51:12;5.20;;;1.90;;
71648;SDS011;59492;45.638;11.714;2022-07-06T05:53:38;2.30;;;2.00;;
71648;SDS011;59492;45.638;11.714;2022-07-06T05:56:04;2.50;;;2.00;;
71648;SDS011;59492;45.638;11.714;2022-07-06T05:58:30;3.90;;;1.80;;
71648;SDS011;59492;45.638;11.714;2022-07-06T06:00:55;2.40;;;1.70;;
71648;SDS011;59492;45.638;11.714;2022-07-06T06:03:21;2.30;;;1.90;;
71648;SDS011;59492;45.638;11.714;2022-07-06T06:05:47;3.40;;;2.00;;
71648;SDS011;59492;45.638;11.714;2022-07-06T06:08:12;3.70;;;1.90;;
71648;SDS011;59492;45.638;11.714;2022-07-06T06:10:38;2.20;;;1.80;;
71648;SDS011;59492;45.638;11.714;2022-07-06T06:13:03;6.90;;;2.00;;
71648;SDS011;59492;45.638;11.714;2022-07-06T06:15:29;3.70;;;2.00;;
71648;SDS011;59492;45.638;11.714;2022-07-06T06:17:55;4.80;;;1.80;;
71648;SDS011;59492;45.638;11.714;2022-07-06T06:20:20;4.30;;;1.90;;
71648;SDS011;59492;45.638;11.714;2022-07-06T06:22:50;4.70;;;2.00;;
71648;SDS011;59492;45.638;11.714;2022-07-06T06:25:19;4.90;;;2.00;;
71648;SDS011;59492;45.638;11.714;2022-07-06T06:27:46;2.30;;;1.90;;
71648;SDS011;59492;45.638;11.714;2022-07-06T06:30:12;3.40;;;1.80;;
71648;SDS011;59492;45.638;11.714;2022-07-06T06:32:38;4.60;;;2.00;;
71648;SDS011;59492;45.638;11.714;2022-07-06T06:35:05;2.60;;;1.70;;
71648;SDS011;59492;45.638;11.714;2022-07-06T06:37:31;4.20;;;1.80;;
71648;SDS011;59492;45.638;11.714;2022-07-06T06:39:57;4.60;;;1.70;;
71648;SDS011;59492;45.638;11.714;2022-07-06T06:42:23;3.20;;;2.00;;
71648;SDS011;59492;45.638;11.714;2022-07-06T06:44:50;6.30;;;2.10;;
71648;SDS011;59492;45.638;11.714;2022-07-06T06:47:21;3.50;;;2.00;;
71648;SDS011;59492;45.638;11.714;2022-07-06T06:49:47;3.80;;;1.90;;
71648;SDS011;59492;45.638;11.714;2022-07-06T06:52:13;2.50;;;1.70;;
71648;SDS011;59492;45.638;11.714;2022-07-06T06:54:39;3.10;;;1.70;;
71648;SDS011;59492;45.638;11.714;2022-07-06T06:57:05;3.40;;;1.90;;
71648;SDS011;59492;45.638;11.714;2022-07-06T06:59:31;3.90;;;2.00;;
71648;SDS011;59492;45.638;11.714;2022-07-06T07:01:58;4.90;;;2.20;;
71648;SDS011;59492;45.638;11.714;2022-07-06T07:04:30;3.40;;;1.90;;
71648;SDS011;59492;45.638;11.714;2022-07-06T07:06:56;3.10;;;2.00;;
71648;SDS011;59492;45.638;11.714;2022-07-06T07:09:22;4.30;;;1.60;;
71648;SDS011;59492;45.638;11.714;2022-07-06T07:11:48;3.10;;;2.00;;
71648;SDS011;59492;45.638;11.714;2022-07-06T07:14:15;8.10;;;1.90;;
71648;SDS011;59492;45.638;11.714;2022-07-06T07:16:41;2.90;;;2.00;;
71648;SDS011;59492;45.638;11.714;2022-07-06T07:19:06;3.30;;;1.70;;
71648;SDS011;59492;45.638;11.714;2022-07-06T07:21:32;3.70;;;1.70;;
71648;SDS011;59492;45.638;11.714;2022-07-06T07:23:58;7.40;;;2.00;;
71648;SDS011;59492;45.638;11.714;2022-07-06T07:26:23;4.10;;;2.30;;
71648;SDS011;59492;45.638;11.714;2022-07-06T07:28:49;5.00;;;1.80;;
71648;SDS011;59492;45.638;11.714;2022-07-06T07:31:14;3.90;;;1.70;;
71648;SDS011;59492;45.638;11.714;2022-07-06T07:33:40;2.40;;;1.70;;
71648;SDS011;59492;45.638;11.714;2022-07-06T07:36:06;4.00;;;1.70;;
71648;SDS011;59492;45.638;11.714;2022-07-06T07:38:33;8.10;;;2.00;;
71648;SDS011;59492;45.638;11.714;2022-07-06T07:41:00;3.60;;;1.80;;
71648;SDS011;59492;45.638;11.714;2022-07-06T07:43:28;4.30;;;2.00;;
71648;SDS011;59492;45.638;11.714;2022-07-06T07:46:03;4.10;;;2.00;;
71648;SDS011;59492;45.638;11.714;2022-07-06T07:48:35;4.60;;;2.40;;
71648;SDS011;59492;45.638;11.714;2022-07-06T07:51:18;4.60;;;2.20;;
71648;SDS011;59492;45.638;11.714;2022-07-06T07:53:49;6.50;;;2.50;;
71648;SDS011;59492;45.638;11.714;2022-07-06T07:56:23;4.50;;;2.20;;
71648;SDS011;59492;45.638;11.714;2022-07-06T07:58:52;3.10;;;2.10;;
71648;SDS011;59492;45.638;11.714;2022-07-06T08:01:20;5.10;;;2.10;;
71648;SDS011;59492;45.638;11.714;2022-07-06T08:03:46;4.90;;;2.20;;
71648;SDS011;59492;45.638;11.714;2022-07-06T08:06:11;5.00;;;2.40;;
71648;SDS011;59492;45.638;11.714;2022-07-06T08:08:37;5.00;;;2.50;;
71648;SDS011;59492;45.638;11.714;2022-07-06T08:11:03;4.30;;;1.90;;
71648;SDS011;59492;45.638;11.714;2022-07-06T08:13:28;3.60;;;1.80;;
71648;SDS011;59492;45.638;11.714;2022-07-06T08:15:54;3.90;;;1.90;;
71648;SDS011;59492;45.638;11.714;2022-07-06T08:18:20;4.80;;;2.20;;
71648;SDS011;59492;45.638;11.714;2022-07-06T08:20:45;4.20;;;2.00;;
71648;SDS011;59492;45.638;11.714;2022-07-06T08:23:11;4.20;;;2.10;;
71648;SDS011;59492;45.638;11.714;2022-07-06T08:25:36;4.70;;;2.10;;
71648;SDS011;59492;45.638;11.714;2022-07-06T08:28:02;3.20;;;1.80;;
71648;SDS011;59492;45.638;11.714;2022-07-06T08:30:28;3.60;;;2.30;;
71648;SDS011;59492;45.638;11.714;2022-07-06T08:32:56;4.80;;;2.10;;
71648;SDS011;59492;45.638;11.714;2022-07-06T08:35:22;3.30;;;2.30;;
71648;SDS011;59492;45.638;11.714;2022-07-06T08:37:47;4.90;;;2.30;;
71648;SDS011;59492;45.638;11.714;2022-07-06T08:40:14;4.30;;;2.10;;
71648;SDS011;59492;45.638;11.714;2022-07-06T08:42:40;3.50;;;1.80;;
71648;SDS011;59492;45.638;11.714;2022-07-06T08:45:07;2.60;;;1.90;;
71648;SDS011;59492;45.638;11.714;2022-07-06T08:47:35;3.20;;;1.80;;
71648;SDS011;59492;45.638;11.714;2022-07-06T08:50:02;2.90;;;2.10;;
71648;SDS011;59492;45.638;11.714;2022-07-06T08:52:29;3.10;;;1.80;;
71648;SDS011;59492;45.638;11.714;2022-07-06T08:54:55;6.90;;;2.00;;
71648;SDS011;59492;45.638;11.714;2022-07-06T08:57:21;7.00;;;2.10;;
71648;SDS011;59492;45.638;11.714;2022-07-06T08:59:48;5.50;;;2.10;;
71648;SDS011;59492;45.638;11.714;2022-07-06T09:02:13;5.50;;;2.20;;
71648;SDS011;59492;45.638;11.714;2022-07-06T09:04:40;3.40;;;2.10;;
71648;SDS011;59492;45.638;11.714;2022-07-06T09:07:08;6.40;;;2.10;;
71648;SDS011;59492;45.638;11.714;2022-07-06T09:09:36;3.70;;;2.00;;
71648;SDS011;59492;45.638;11.714;2022-07-06T09:12:03;8.00;;;2.00;;
71648;SDS011;59492;45.638;11.714;2022-07-06T09:14:29;4.30;;;1.90;;
71648;SDS011;59492;45.638;11.714;2022-07-06T09:17:02;4.10;;;2.10;;
71648;SDS011;59492;45.638;11.714;2022-07-06T09:19:33;6.90;;;2.00;;
71648;SDS011;59492;45.638;11.714;2022-07-06T09:22:02;3.00;;;2.10;;
71648;SDS011;59492;45.638;11.714;2022-07-06T09:24:42;2.80;;;2.00;;
71648;SDS011;59492;45.638;11.714;2022-07-06T09:27:15;3.50;;;2.20;;
71648;SDS011;59492;45.638;11.714;2022-07-06T09:29:45;4.80;;;1.90;;
71648;SDS011;59492;45.638;11.714;2022-07-06T09:32:12;3.40;;;1.90;;
71648;SDS011;59492;45.638;11.714;2022-07-06T09:34:49;4.60;;;1.80;;
71648;SDS011;59492;45.638;11.714;2022-07-06T09:37:24;4.10;;;1.80;;
71648;SDS011;59492;45.638;11.714;2022-07-06T09:39:55;3.00;;;1.80;;
71648;SDS011;59492;45.638;11.714;2022-07-06T09:42:25;3.90;;;1.90;;
71648;SDS011;59492;45.638;11.714;2022-07-06T09:44:51;3.80;;;1.70;;
71648;SDS011;59492;45.638;11.714;2022-07-06T09:47:17;3.70;;;2.00;;
71648;SDS011;59492;45.638;11.714;2022-07-06T09:49:45;3.70;;;1.70;;
71648;SDS011;59492;45.638;11.714;2022-07-06T09:52:16;4.00;;;1.90;;
71648;SDS011;59492;45.638;11.714;2022-07-06T09:54:42;2.10;;;1.80;;
71648;SDS011;59492;45.638;11.714;2022-07-06T09:57:07;4.00;;;2.10;;
71648;SDS011;59492;45.638;11.714;2022-07-06T09:59:34;5.00;;;2.30;;
71648;SDS011;59492;45.638;11.714;2022-07-06T10:02:02;2.40;;;1.70;;
71648;SDS011;59492;45.638;11.714;2022-07-06T10:04:32;4.90;;;1.80;;
71648;SDS011;59492;45.638;11.714;2022-07-06T10:06:58;2.30;;;1.80;;
71648;SDS011;59492;45.638;11.714;2022-07-06T10:09:25;2.90;;;1.80;;
71648;SDS011;59492;45.638;11.714;2022-07-06T10:11:53;3.00;;;1.90;;
71648;SDS011;59492;45.638;11.714;2022-07-06T10:14:26;3.60;;;2.10;;
71648;SDS011;59492;45.638;11.714;2022-07-06T10:17:02;2.90;;;2.00;;
71648;SDS011;59492;45.638;11.714;2022-07-06T10:19:32;2.00;;;1.60;;
71648;SDS011;59492;45.638;11.714;2022-07-06T10:21:59;2.50;;;1.80;;
71648;SDS011;59492;45.638;11.714;2022-07-06T10:24:28;2.90;;;1.90;;
71648;SDS011;59492;45.638;11.714;2022-07-06T10:26:56;2.90;;;2.00;;
71648;SDS011;59492;45.638;11.714;2022-07-06T10:29:23;2.90;;;2.20;;
71648;SDS011;59492;45.638;11.714;2022-07-06T10:31:58;1.90;;;1.60;;
71648;SDS011;59492;45.638;11.714;2022-07-06T10:34:31;3.80;;;2.20;;
71648;SDS011;59492;45.638;11.714;2022-07-06T10:37:03;3.90;;;2.10;;
71648;SDS011;59492;45.638;11.714;2022-07-06T10:39:36;10.80;;;2.80;;
71648;SDS011;59492;45.638;11.714;2022-07-06T10:50:41;4.80;;;1.90;;
71648;SDS011;59492;45.638;11.714;2022-07-06T10:53:10;4.30;;;2.00;;
71648;SDS011;59492;45.638;11.714;2022-07-06T10:55:41;3.00;;;1.80;;
71648;SDS011;59492;45.638;11.714;2022-07-06T10:58:12;2.80;;;2.40;;
71648;SDS011;59492;45.638;11.714;2022-07-06T11:00:53;3.70;;;1.80;;
71648;SDS011;59492;45.638;11.714;2022-07-06T11:03:31;3.00;;;1.60;;
71648;SDS011;59492;45.638;11.714;2022-07-06T11:06:09;1.70;;;1.60;;
71648;SDS011;59492;45.638;11.714;2022-07-06T11:08:42;3.60;;;1.80;;
71648;SDS011;59492;45.638;11.714;2022-07-06T11:11:17;4.10;;;1.60;;
71648;SDS011;59492;45.638;11.714;2022-07-06T11:13:52;3.20;;;1.70;;
71648;SDS011;59492;45.638;11.714;2022-07-06T11:16:24;2.40;;;1.50;;
71648;SDS011;59492;45.638;11.714;2022-07-06T11:19:01;1.60;;;1.50;;
71648;SDS011;59492;45.638;11.714;2022-07-06T11:24:21;2.90;;;1.70;;
71648;SDS011;59492;45.638;11.714;2022-07-06T11:26:55;5.20;;;1.70;;
71648;SDS011;59492;45.638;11.714;2022-07-06T11:29:22;1.50;;;1.40;;
71648;SDS011;59492;45.638;11.714;2022-07-06T11:31:59;3.60;;;1.70;;
71648;SDS011;59492;45.638;11.714;2022-07-06T11:34:30;3.30;;;1.70;;
71648;SDS011;59492;45.638;11.714;2022-07-06T11:37:03;3.60;;;1.60;;
71648;SDS011;59492;45.638;11.714;2022-07-06T11:39:33;6.30;;;1.60;;
71648;SDS011;59492;45.638;11.714;2022-07-06T11:42:02;7.60;;;1.80;;
71648;SDS011;59492;45.638;11.714;2022-07-06T11:44:34;6.00;;;1.70;;
71648;SDS011;59492;45.638;11.714;2022-07-06T11:47:16;4.60;;;1.70;;
71648;SDS011;59492;45.638;11.714;2022-07-06T11:50:03;8.10;;;1.70;;
71648;SDS011;59492;45.638;11.714;2022-07-06T11:52:31;3.20;;;1.80;;
71648;SDS011;59492;45.638;11.714;2022-07-06T11:54:58;3.20;;;1.50;;
71648;SDS011;59492;45.638;11.714;2022-07-06T11:57:27;8.30;;;1.70;;
71648;SDS011;59492;45.638;11.714;2022-07-06T11:59:57;2.90;;;1.50;;
71648;SDS011;59492;45.638;11.714;2022-07-06T12:02:23;3.30;;;1.30;;
71648;SDS011;59492;45.638;11.714;2022-07-06T12:04:51;5.40;;;1.40;;
71648;SDS011;59492;45.638;11.714;2022-07-06T12:07:20;4.50;;;1.50;;
71648;SDS011;59492;45.638;11.714;2022-07-06T12:09:46;2.30;;;1.50;;
71648;SDS011;59492;45.638;11.714;2022-07-06T12:12:12;4.50;;;1.60;;
71648;SDS011;59492;45.638;11.714;2022-07-06T12:14:39;7.40;;;2.00;;
71648;SDS011;59492;45.638;11.714;2022-07-06T12:17:07;3.20;;;1.50;;
71648;SDS011;59492;45.638;11.714;2022-07-06T12:19:35;5.80;;;1.80;;
71648;SDS011;59492;45.638;11.714;2022-07-06T12:22:02;2.00;;;1.40;;
71648;SDS011;59492;45.638;11.714;2022-07-06T12:24:29;2.20;;;1.60;;
71648;SDS011;59492;45.638;11.714;2022-07-06T12:26:57;2.20;;;1.50;;
71648;SDS011;59492;45.638;11.714;2022-07-06T12:29:24;3.10;;;1.60;;
71648;SDS011;59492;45.638;11.714;2022-07-06T12:31:54;2.80;;;1.60;;
71648;SDS011;59492;45.638;11.714;2022-07-06T12:34:25;2.00;;;1.40;;
71648;SDS011;59492;45.638;11.714;2022-07-06T12:36:55;2.40;;;1.50;;
71648;SDS011;59492;45.638;11.714;2022-07-06T12:39:23;1.60;;;1.20;;
71648;SDS011;59492;45.638;11.714;2022-07-06T12:44:20;4.20;;;1.50;;
71648;SDS011;59492;45.638;11.714;2022-07-06T12:46:48;3.70;;;1.50;;
71648;SDS011;59492;45.638;11.714;2022-07-06T12:49:28;2.40;;;1.50;;
71648;SDS011;59492;45.638;11.714;2022-07-06T12:52:01;1.70;;;1.20;;
71648;SDS011;59492;45.638;11.714;2022-07-06T12:54:44;2.90;;;1.50;;
71648;SDS011;59492;45.638;11.714;2022-07-06T12:57:14;1.80;;;1.40;;
71648;SDS011;59492;45.638;11.714;2022-07-06T12:59:48;3.00;;;1.60;;
71648;SDS011;59492;45.638;11.714;2022-07-06T13:02:23;2.40;;;1.50;;
71648;SDS011;59492;45.638;11.714;2022-07-06T13:04:59;2.40;;;1.60;;
71648;SDS011;59492;45.638;11.714;2022-07-06T13:07:27;1.70;;;1.40;;
71648;SDS011;59492;45.638;11.714;2022-07-06T13:09:57;2.80;;;1.60;;
71648;SDS011;59492;45.638;11.714;2022-07-06T13:12:23;3.90;;;1.60;;
71648;SDS011;59492;45.638;11.714;2022-07-06T13:14:50;2.80;;;1.00;;
71648;SDS011;59492;45.638;11.714;2022-07-06T13:17:17;2.70;;;1.30;;
71648;SDS011;59492;45.638;11.714;2022-07-06T13:19:43;1.80;;;1.30;;
71648;SDS011;59492;45.638;11.714;2022-07-06T13:22:09;3.70;;;1.50;;
71648;SDS011;59492;45.638;11.714;2022-07-06T13:24:35;4.60;;;1.40;;
71648;SDS011;59492;45.638;11.714;2022-07-06T13:27:02;4.00;;;1.30;;
71648;SDS011;59492;45.638;11.714;2022-07-06T13:29:28;6.20;;;1.40;;
71648;SDS011;59492;45.638;11.714;2022-07-06T13:31:54;3.40;;;1.30;;
71648;SDS011;59492;45.638;11.714;2022-07-06T13:34:20;5.30;;;1.40;;
71648;SDS011;59492;45.638;11.714;2022-07-06T13:36:46;4.00;;;1.30;;
71648;SDS011;59492;45.638;11.714;2022-07-06T13:39:11;2.20;;;1.50;;
71648;SDS011;59492;45.638;11.714;2022-07-06T13:41:37;1.30;;;1.20;;
71648;SDS011;59492;45.638;11.714;2022-07-06T13:44:03;3.00;;;1.40;;
71648;SDS011;59492;45.638;11.714;2022-07-06T13:46:30;3.40;;;1.30;;
71648;SDS011;59492;45.638;11.714;2022-07-06T13:48:56;7.20;;;1.20;;
71648;SDS011;59492;45.638;11.714;2022-07-06T13:51:24;2.30;;;1.30;;
71648;SDS011;59492;45.638;11.714;2022-07-06T13:53:53;2.40;;;1.40;;
71648;SDS011;59492;45.638;11.714;2022-07-06T13:56:42;2.10;;;1.60;;
71648;SDS011;59492;45.638;11.714;2022-07-06T13:59:10;3.70;;;1.40;;
71648;SDS011;59492;45.638;11.714;2022-07-06T14:01:36;5.80;;;1.30;;
71648;SDS011;59492;45.638;11.714;2022-07-06T14:04:03;2.80;;;1.30;;
71648;SDS011;59492;45.638;11.714;2022-07-06T14:06:30;1.90;;;1.20;;
71648;SDS011;59492;45.638;11.714;2022-07-06T14:09:00;4.90;;;1.50;;
71648;SDS011;59492;45.638;11.714;2022-07-06T14:11:37;4.80;;;1.40;;
71648;SDS011;59492;45.638;11.714;2022-07-06T14:14:18;3.80;;;1.40;;
71648;SDS011;59492;45.638;11.714;2022-07-06T14:16:46;5.80;;;1.30;;
71648;SDS011;59492;45.638;11.714;2022-07-06T14:19:20;3.90;;;1.30;;
71648;SDS011;59492;45.638;11.714;2022-07-06T14:21:47;3.10;;;1.40;;
71648;SDS011;59492;45.638;11.714;2022-07-06T14:24:14;1.60;;;1.10;;
71648;SDS011;59492;45.638;11.714;2022-07-06T14:26:46;3.00;;;1.40;;
71648;SDS011;59492;45.638;11.714;2022-07-06T14:29:27;1.40;;;1.20;;
71648;SDS011;59492;45.638;11.714;2022-07-06T14:32:03;2.20;;;1.30;;
71648;SDS011;59492;45.638;11.714;2022-07-06T14:34:35;1.30;;;1.00;;
71648;SDS011;59492;45.638;11.714;2022-07-06T14:37:10;1.40;;;1.30;;
71648;SDS011;59492;45.638;11.714;2022-07-06T14:39:47;1.50;;;1.20;;
71648;SDS011;59492;45.638;11.714;2022-07-06T14:42:27;4.00;;;1.20;;
71648;SDS011;59492;45.638;11.714;2022-07-06T14:45:08;1.70;;;1.20;;
71648;SDS011;59492;45.638;11.714;2022-07-06T14:47:44;1.20;;;1.10;;
71648;SDS011;59492;45.638;11.714;2022-07-06T14:50:29;3.50;;;1.30;;
71648;SDS011;59492;45.638;11.714;2022-07-06T14:53:05;4.30;;;1.20;;
71648;SDS011;59492;45.638;11.714;2022-07-06T14:55:38;1.40;;;1.10;;